createdAt,value
2023-03-26T00:01:33.703Z,7.60
2023-03-26T00:04:02.240Z,7.70
2023-03-26T00:06:30.951Z,7.60
2023-03-26T00:08:59.779Z,7.70
2023-03-26T00:11:29.609Z,7.60
2023-03-26T00:13:58.643Z,7.60
2023-03-26T00:16:31.350Z,7.70
2023-03-26T00:19:00.195Z,7.60
2023-03-26T00:21:29.456Z,7.60
2023-03-26T00:23:59.912Z,7.70
2023-03-26T00:26:29.720Z,7.60
2023-03-26T00:28:58.452Z,7.70
2023-03-26T00:31:28.272Z,7.70
2023-03-26T00:33:56.688Z,7.70
2023-03-26T00:36:26.777Z,7.70
2023-03-26T00:38:55.658Z,7.70
2023-03-26T00:41:27.045Z,7.70
2023-03-26T00:43:57.634Z,7.70
2023-03-26T00:46:26.641Z,7.70
2023-03-26T00:48:58.968Z,7.70
2023-03-26T00:51:27.820Z,7.70
2023-03-26T00:53:56.418Z,7.70
2023-03-26T00:56:24.758Z,7.60
2023-03-26T00:58:53.066Z,7.70
2023-03-26T01:01:27.705Z,7.70
2023-03-26T01:06:33.900Z,7.70
2023-03-26T01:09:05.678Z,7.70
2023-03-26T01:11:35.757Z,7.70
2023-03-26T01:14:07.341Z,7.70
2023-03-26T01:16:38.608Z,7.70
2023-03-26T01:19:13.039Z,7.70
2023-03-26T01:21:41.731Z,7.70
2023-03-26T01:24:11.844Z,7.60
2023-03-26T01:26:49.426Z,7.60
2023-03-26T01:29:23.779Z,7.60
2023-03-26T01:31:58.132Z,7.60
2023-03-26T01:34:31.005Z,7.70
2023-03-26T01:37:04.934Z,7.60
2023-03-26T01:39:38.965Z,7.60
2023-03-26T01:42:10.539Z,7.60
2023-03-26T01:44:42.898Z,7.60
2023-03-26T01:47:11.740Z,7.60
2023-03-26T01:49:39.994Z,7.60
2023-03-26T01:52:13.840Z,7.60
2023-03-26T01:54:46.761Z,7.60
2023-03-26T01:57:21.911Z,7.60
2023-03-26T01:59:57.835Z,7.60
2023-03-26T02:02:31.949Z,7.60
2023-03-26T02:05:06.072Z,7.60
2023-03-26T02:07:38.112Z,7.60
2023-03-26T02:10:13.256Z,7.50
2023-03-26T02:12:41.964Z,7.50
2023-03-26T02:15:11.504Z,7.50
2023-03-26T02:17:40.878Z,7.50
2023-03-26T02:20:10.595Z,7.50
2023-03-26T02:22:41.043Z,7.50
2023-03-26T02:25:12.891Z,7.50
2023-03-26T02:27:42.500Z,7.50
2023-03-26T02:30:13.438Z,7.50
2023-03-26T02:32:43.821Z,7.50
2023-03-26T02:35:12.911Z,7.50
2023-03-26T02:37:42.318Z,7.60
2023-03-26T02:40:12.231Z,7.50
2023-03-26T02:42:40.867Z,7.50
2023-03-26T02:45:09.570Z,7.50
2023-03-26T02:47:38.039Z,7.50
2023-03-26T02:50:07.076Z,7.50
2023-03-26T02:52:36.128Z,7.50
2023-03-26T02:55:04.546Z,7.50
2023-03-26T02:57:34.190Z,7.50
2023-03-26T03:00:13.277Z,7.50
2023-03-26T03:02:41.700Z,7.50
2023-03-26T03:05:10.418Z,7.50
2023-03-26T03:07:39.044Z,7.50
2023-03-26T03:10:10.088Z,7.40
2023-03-26T03:12:39.714Z,7.40
2023-03-26T03:15:09.284Z,7.40
2023-03-26T03:17:37.568Z,7.40
2023-03-26T03:20:09.325Z,7.40
2023-03-26T03:22:37.634Z,7.40
2023-03-26T03:25:09.046Z,7.30
2023-03-26T03:27:39.373Z,7.30
2023-03-26T03:30:11.007Z,7.30
2023-03-26T03:32:39.445Z,7.30
2023-03-26T03:35:08.237Z,7.30
2023-03-26T03:37:36.528Z,7.20
2023-03-26T03:40:07.724Z,7.20
2023-03-26T03:42:35.960Z,7.20
2023-03-26T03:45:04.426Z,7.20
2023-03-26T03:47:34.179Z,7.20
2023-03-26T03:50:02.523Z,7.20
2023-03-26T03:52:30.740Z,7.20
2023-03-26T03:55:00.534Z,7.20
2023-03-26T03:57:29.170Z,7.20
2023-03-26T03:59:58.393Z,7.20
2023-03-26T04:02:30.298Z,7.20
2023-03-26T04:05:00.205Z,7.10
2023-03-26T04:07:30.698Z,7.10
2023-03-26T04:10:02.566Z,7.10
2023-03-26T04:12:31.635Z,7.10
2023-03-26T04:15:00.323Z,7.10
2023-03-26T04:17:30.596Z,7.00
2023-03-26T04:20:10.470Z,7.00
2023-03-26T04:22:39.592Z,7.00
2023-03-26T04:25:08.244Z,7.00
2023-03-26T04:27:37.225Z,7.00
2023-03-26T04:30:08.305Z,6.90
2023-03-26T04:32:38.678Z,6.90
2023-03-26T04:35:08.970Z,6.90
2023-03-26T04:37:40.592Z,6.80
2023-03-26T04:40:13.063Z,6.80
2023-03-26T04:42:46.024Z,6.80
2023-03-26T04:45:15.959Z,6.80
2023-03-26T04:47:46.587Z,6.70
2023-03-26T04:50:16.510Z,6.60
2023-03-26T04:52:45.381Z,6.50
2023-03-26T04:55:20.823Z,6.50
2023-03-26T04:57:50.997Z,6.50
2023-03-26T05:00:20.408Z,6.50
2023-03-26T05:02:50.531Z,6.50
2023-03-26T05:05:20.331Z,6.40
2023-03-26T05:07:48.562Z,6.40
2023-03-26T05:10:17.580Z,6.40
2023-03-26T05:12:45.974Z,6.40
2023-03-26T05:15:15.446Z,6.50
2023-03-26T05:17:43.938Z,6.60
2023-03-26T05:20:20.779Z,6.60
2023-03-26T05:22:51.329Z,6.60
2023-03-26T05:25:20.151Z,6.60
2023-03-26T05:27:48.843Z,6.70
2023-03-26T05:30:18.514Z,6.70
2023-03-26T05:32:48.834Z,6.70
2023-03-26T05:35:18.118Z,6.70
2023-03-26T05:37:46.868Z,6.60
2023-03-26T05:40:17.290Z,6.60
2023-03-26T05:42:46.129Z,6.60
2023-03-26T05:45:16.217Z,6.70
2023-03-26T05:47:44.646Z,6.80
2023-03-26T05:50:13.036Z,6.70
2023-03-26T05:52:41.460Z,6.60
2023-03-26T05:55:10.496Z,6.60
2023-03-26T05:57:40.420Z,6.60
2023-03-26T06:00:11.097Z,6.60
2023-03-26T06:02:39.492Z,6.60
2023-03-26T06:05:09.897Z,6.50
2023-03-26T06:07:38.161Z,6.50
2023-03-26T06:10:07.358Z,6.50
2023-03-26T06:12:38.926Z,6.50
2023-03-26T06:15:09.062Z,6.50
2023-03-26T06:17:37.313Z,6.60
2023-03-26T06:20:09.395Z,6.60
2023-03-26T06:22:37.844Z,6.60
2023-03-26T06:25:08.928Z,6.60
2023-03-26T06:27:37.183Z,6.60
2023-03-26T06:30:08.429Z,6.70
2023-03-26T06:32:36.773Z,6.60
2023-03-26T06:35:05.415Z,6.60
2023-03-26T06:37:33.857Z,6.60
2023-03-26T06:40:02.235Z,6.60
2023-03-26T06:43:08.205Z,6.60
2023-03-26T06:45:20.236Z,6.60
2023-03-26T06:47:48.662Z,6.50
2023-03-26T06:50:16.985Z,6.50
2023-03-26T06:52:45.276Z,6.60
2023-03-26T06:55:13.785Z,6.60
2023-03-26T06:57:42.714Z,6.60
2023-03-26T07:00:13.534Z,6.60
2023-03-26T07:02:43.272Z,6.60
2023-03-26T07:05:11.642Z,6.60
2023-03-26T07:07:45.759Z,6.70
2023-03-26T07:10:14.910Z,6.80
2023-03-26T07:12:43.569Z,6.90
2023-03-26T07:15:27.062Z,7.00
2023-03-26T07:17:57.370Z,7.10
2023-03-26T07:20:26.117Z,7.50
2023-03-26T07:22:55.152Z,7.70
2023-03-26T07:25:24.036Z,7.60
2023-03-26T07:28:00.110Z,7.60
2023-03-26T07:30:33.649Z,7.40
2023-03-26T07:33:06.073Z,7.50
2023-03-26T07:35:38.861Z,7.50
2023-03-26T07:38:21.654Z,7.50
2023-03-26T07:40:58.269Z,7.30
2023-03-26T07:43:37.211Z,7.20
2023-03-26T07:46:09.346Z,7.10
2023-03-26T07:48:42.394Z,7.10
2023-03-26T07:51:12.542Z,7.00
2023-03-26T07:53:41.586Z,6.90
2023-03-26T07:56:14.773Z,6.90
2023-03-26T07:58:53.506Z,6.80
2023-03-26T08:01:28.309Z,6.80
2023-03-26T08:04:24.158Z,6.80
2023-03-26T08:06:57.387Z,6.80
2023-03-26T08:09:31.965Z,6.80
2023-03-26T08:12:06.282Z,6.70
2023-03-26T08:14:46.161Z,6.80
2023-03-26T08:17:16.266Z,6.80
2023-03-26T08:19:59.180Z,6.80
2023-03-26T08:22:30.150Z,6.80
2023-03-26T08:25:11.730Z,7.00
2023-03-26T08:27:43.358Z,6.80
2023-03-26T08:30:15.515Z,6.90
2023-03-26T08:32:50.593Z,7.00
2023-03-26T08:35:20.382Z,7.00
2023-03-26T08:37:48.661Z,7.10
2023-03-26T08:40:21.733Z,7.10
2023-03-26T08:43:20.071Z,7.10
2023-03-26T08:46:23.756Z,7.20
2023-03-26T08:49:29.697Z,7.10
2023-03-26T08:52:33.195Z,7.30
2023-03-26T08:55:35.202Z,7.60
2023-03-26T08:58:40.464Z,7.70
2023-03-26T09:01:35.564Z,7.80
2023-03-26T09:04:16.278Z,7.80
2023-03-26T09:07:07.025Z,7.90
2023-03-26T09:10:09.152Z,8.10
2023-03-26T09:13:06.788Z,8.00
2023-03-26T09:16:23.529Z,8.00
2023-03-26T09:19:14.576Z,8.00
2023-03-26T09:22:12.010Z,7.90
2023-03-26T09:25:12.015Z,7.90
2023-03-26T09:27:49.980Z,8.00
2023-03-26T09:30:54.262Z,8.20
2023-03-26T09:34:03.710Z,8.20
2023-03-26T09:36:45.556Z,8.20
2023-03-26T09:39:21.371Z,8.50
2023-03-26T09:42:03.737Z,9.00
2023-03-26T09:44:52.263Z,9.60
2023-03-26T09:47:48.437Z,9.80
2023-03-26T09:50:35.167Z,9.80
2023-03-26T09:53:25.172Z,9.90
2023-03-26T09:56:06.576Z,10.10
2023-03-26T09:58:49.517Z,10.40
2023-03-26T10:01:21.717Z,10.40
2023-03-26T10:03:58.467Z,10.50
2023-03-26T10:06:47.140Z,10.70
2023-03-26T10:09:31.213Z,10.80
2023-03-26T10:12:21.126Z,10.90
2023-03-26T10:14:55.772Z,10.80
2023-03-26T10:17:45.812Z,10.70
2023-03-26T10:20:43.904Z,10.80
2023-03-26T10:23:27.698Z,11.10
2023-03-26T10:26:06.079Z,10.60
2023-03-26T10:28:46.436Z,10.20
2023-03-26T10:31:37.604Z,10.50
2023-03-26T10:34:28.118Z,11.10
2023-03-26T10:37:04.121Z,11.60
2023-03-26T10:39:58.936Z,11.90
2023-03-26T10:42:43.243Z,12.20
2023-03-26T10:45:20.889Z,12.30
2023-03-26T10:48:14.487Z,12.20
2023-03-26T10:50:53.483Z,12.50
2023-03-26T10:53:35.710Z,12.50
2023-03-26T10:56:13.751Z,12.10
2023-03-26T10:58:48.515Z,12.30
2023-03-26T11:01:25.998Z,12.70
2023-03-26T11:03:54.972Z,12.60
2023-03-26T11:06:31.987Z,12.70
2023-03-26T11:09:08.585Z,12.40
2023-03-26T11:11:45.190Z,12.10
2023-03-26T11:14:27.945Z,12.30
2023-03-26T11:17:06.780Z,12.40
2023-03-26T11:19:39.931Z,12.60
2023-03-26T11:22:18.868Z,12.50
2023-03-26T11:24:58.215Z,12.50
2023-03-26T11:27:36.622Z,12.80
2023-03-26T11:30:15.784Z,12.70
2023-03-26T11:32:46.896Z,12.60
2023-03-26T11:35:39.488Z,12.60
2023-03-26T11:38:13.423Z,12.50
2023-03-26T11:40:43.779Z,12.50
2023-03-26T11:43:14.569Z,12.20
2023-03-26T11:45:46.056Z,12.10
2023-03-26T11:48:18.249Z,11.90
2023-03-26T11:50:48.890Z,12.10
2023-03-26T11:53:19.331Z,12.10
2023-03-26T11:55:52.572Z,12.00
2023-03-26T11:58:29.850Z,12.30
2023-03-26T12:00:59.172Z,12.60
2023-03-26T12:03:30.331Z,12.70
2023-03-26T12:06:00.164Z,12.90
2023-03-26T12:08:32.647Z,13.00
2023-03-26T12:11:03.998Z,12.70
2023-03-26T12:13:38.426Z,12.90
2023-03-26T12:16:11.646Z,12.90
2023-03-26T12:18:41.320Z,13.20
2023-03-26T12:21:11.162Z,13.10
2023-03-26T12:23:46.106Z,13.30
2023-03-26T12:26:18.486Z,13.40
2023-03-26T12:28:49.944Z,13.50
2023-03-26T12:31:19.608Z,13.50
2023-03-26T12:34:06.047Z,13.40
2023-03-26T12:36:35.900Z,13.40
2023-03-26T12:40:08.734Z,13.50
2023-03-26T12:44:44.164Z,13.70
2023-03-26T12:45:16.231Z,13.90
2023-03-26T12:47:56.928Z,13.80
2023-03-26T12:50:38.123Z,13.60
2023-03-26T12:53:32.828Z,13.50
2023-03-26T12:56:02.368Z,13.80
2023-03-26T12:58:54.999Z,13.90
2023-03-26T13:01:34.433Z,14.00
2023-03-26T13:04:34.245Z,13.90
2023-03-26T13:07:06.470Z,13.80
2023-03-26T13:09:49.343Z,13.50
2023-03-26T13:12:28.275Z,13.60
2023-03-26T13:15:08.302Z,13.60
2023-03-26T13:17:43.032Z,13.50
2023-03-26T13:20:18.936Z,13.40
2023-03-26T13:22:54.217Z,13.40
2023-03-26T13:25:32.576Z,13.20
2023-03-26T13:28:13.347Z,13.10
2023-03-26T13:30:45.826Z,12.90
2023-03-26T13:33:27.226Z,12.90
2023-03-26T13:36:14.298Z,13.00
2023-03-26T13:38:58.965Z,13.00
2023-03-26T13:41:36.633Z,13.00
2023-03-26T13:44:10.527Z,12.80
2023-03-26T13:46:42.051Z,12.60
2023-03-26T13:49:15.678Z,12.30
2023-03-26T13:51:46.164Z,12.20
2023-03-26T13:54:19.913Z,12.20
2023-03-26T13:56:50.853Z,12.20
2023-03-26T13:59:21.899Z,12.00
2023-03-26T14:01:55.147Z,12.00
2023-03-26T14:04:32.237Z,11.60
2023-03-26T14:07:06.403Z,11.60
2023-03-26T14:09:41.981Z,11.50
2023-03-26T14:12:24.125Z,11.40
2023-03-26T14:14:55.446Z,11.10
2023-03-26T14:17:27.342Z,11.30
2023-03-26T14:20:30.125Z,11.20
2023-03-26T14:23:30.488Z,11.10
2023-03-26T14:26:09.695Z,11.00
2023-03-26T14:29:16.631Z,11.00
2023-03-26T14:31:48.612Z,10.70
2023-03-26T14:34:31.285Z,10.50
2023-03-26T14:37:34.758Z,10.50
2023-03-26T14:40:27.899Z,10.60
2023-03-26T14:43:06.593Z,10.60
2023-03-26T14:46:08.721Z,10.50
2023-03-26T14:48:50.885Z,10.30
2023-03-26T14:51:30.085Z,10.40
2023-03-26T14:54:03.304Z,10.30
2023-03-26T14:56:49.864Z,10.20
2023-03-26T15:00:07.359Z,10.20
2023-03-26T15:03:24.956Z,10.00
2023-03-26T15:06:30.031Z,10.00
2023-03-26T15:09:41.720Z,9.90
2023-03-26T15:12:19.506Z,9.90
2023-03-26T15:15:34.498Z,9.70
2023-03-26T15:18:53.204Z,9.50
2023-03-26T15:21:58.053Z,9.60
2023-03-26T15:24:52.921Z,9.60
2023-03-26T15:27:52.053Z,9.70
2023-03-26T15:30:39.492Z,9.70
2023-03-26T15:33:43.879Z,9.60
2023-03-26T15:36:53.316Z,9.60
2023-03-26T15:40:12.261Z,9.60
2023-03-26T15:42:54.699Z,9.50
2023-03-26T15:45:37.126Z,9.30
2023-03-26T15:48:30.182Z,9.20
2023-03-26T15:51:06.273Z,9.20
2023-03-26T15:53:39.544Z,9.20
2023-03-26T15:56:27.925Z,9.20
2023-03-26T15:59:05.317Z,9.20
2023-03-26T16:01:46.179Z,9.00
2023-03-26T16:04:24.948Z,9.10
2023-03-26T16:06:59.157Z,9.10
2023-03-26T16:09:54.041Z,9.00
2023-03-26T16:12:32.737Z,9.00
2023-03-26T16:15:32.324Z,9.00
2023-03-26T16:18:22.614Z,8.90
2023-03-26T16:20:53.986Z,8.80
2023-03-26T16:23:28.679Z,8.70
2023-03-26T16:26:00.417Z,8.70
2023-03-26T16:28:33.686Z,8.60
2023-03-26T16:31:37.302Z,8.60
2023-03-26T16:34:42.069Z,8.50
2023-03-26T16:37:50.166Z,8.60
2023-03-26T16:40:35.765Z,8.50
2023-03-26T16:43:21.449Z,8.50
2023-03-26T16:45:56.439Z,8.50
2023-03-26T16:48:29.009Z,8.60
2023-03-26T16:51:04.711Z,8.50
2023-03-26T16:53:41.773Z,8.40
2023-03-26T16:56:16.844Z,8.50
2023-03-26T16:58:56.310Z,8.40
2023-03-26T17:01:36.427Z,8.40
2023-03-26T17:04:07.364Z,8.40
2023-03-26T17:06:54.131Z,8.40
2023-03-26T17:09:27.122Z,8.40
2023-03-26T17:12:01.900Z,8.50
2023-03-26T17:14:40.128Z,8.50
2023-03-26T17:17:32.409Z,8.50
2023-03-26T17:20:05.058Z,8.50
2023-03-26T17:22:40.065Z,8.40
2023-03-26T17:25:20.671Z,8.40
2023-03-26T17:27:53.082Z,8.30
2023-03-26T17:30:55.092Z,8.30
2023-03-26T17:33:31.008Z,8.30
2023-03-26T17:36:41.301Z,8.20
2023-03-26T17:39:46.337Z,8.20
2023-03-26T17:42:27.041Z,8.10
2023-03-26T17:44:56.355Z,8.00
2023-03-26T17:47:32.798Z,8.00
2023-03-26T17:50:06.508Z,7.90
2023-03-26T17:52:57.360Z,7.90
2023-03-26T17:55:31.058Z,7.80
2023-03-26T17:58:00.669Z,7.70
2023-03-26T18:00:31.211Z,7.70
2023-03-26T18:03:02.953Z,7.70
2023-03-26T18:05:34.251Z,7.70
2023-03-26T18:08:16.108Z,7.60
2023-03-26T18:11:10.047Z,7.50
2023-03-26T18:13:48.022Z,7.50
2023-03-26T18:16:17.552Z,7.50
2023-03-26T18:18:50.444Z,7.50
2023-03-26T18:21:24.356Z,7.50
2023-03-26T18:23:52.649Z,7.40
2023-03-26T18:26:23.446Z,7.40
2023-03-26T18:28:54.086Z,7.40
2023-03-26T18:31:26.143Z,7.30
2023-03-26T18:33:59.237Z,7.30
2023-03-26T18:36:29.112Z,7.40
2023-03-26T18:38:59.069Z,7.40
2023-03-26T18:41:30.498Z,7.30
2023-03-26T18:44:02.923Z,7.30
2023-03-26T18:46:31.259Z,7.30
2023-03-26T18:49:00.929Z,7.30
2023-03-26T18:51:32.148Z,7.30
2023-03-26T18:54:02.244Z,7.30
2023-03-26T18:56:32.932Z,7.20
2023-03-26T18:59:02.445Z,7.20
2023-03-26T19:01:32.832Z,7.20
2023-03-26T19:04:04.068Z,7.10
2023-03-26T19:06:38.206Z,7.10
2023-03-26T19:09:13.752Z,7.10
2023-03-26T19:11:50.176Z,7.00
2023-03-26T19:14:20.082Z,7.00
2023-03-26T19:16:50.441Z,7.00
2023-03-26T19:19:23.046Z,7.00
2023-03-26T19:21:52.673Z,7.00
2023-03-26T19:24:21.869Z,7.00
2023-03-26T19:26:50.851Z,7.00
2023-03-26T19:29:23.002Z,7.10
2023-03-26T19:31:52.302Z,7.00
2023-03-26T19:34:27.370Z,7.10
2023-03-26T19:36:59.500Z,7.10
2023-03-26T19:39:38.048Z,7.00
2023-03-26T19:42:07.605Z,7.00
2023-03-26T19:44:39.525Z,7.00
2023-03-26T19:47:09.994Z,6.90
2023-03-26T19:49:43.757Z,6.90
2023-03-26T19:52:16.026Z,6.90
2023-03-26T19:54:59.741Z,6.90
2023-03-26T19:57:30.152Z,6.90
2023-03-26T19:59:58.560Z,6.80
2023-03-26T20:02:29.892Z,6.80
2023-03-26T20:04:58.352Z,6.80
2023-03-26T20:07:35.834Z,6.80
2023-03-26T20:10:06.506Z,6.80
2023-03-26T20:12:34.745Z,6.70
2023-03-26T20:15:03.052Z,6.70
2023-03-26T20:17:34.936Z,6.70
2023-03-26T20:20:05.891Z,6.70
2023-03-26T20:22:35.566Z,6.70
2023-03-26T20:25:09.490Z,6.70
2023-03-26T20:27:37.791Z,6.60
2023-03-26T20:30:09.035Z,6.70
2023-03-26T20:32:38.060Z,6.70
2023-03-26T20:35:15.868Z,6.60
2023-03-26T20:37:45.504Z,6.70
2023-03-26T20:40:15.333Z,6.60
2023-03-26T20:42:45.388Z,6.70
2023-03-26T20:45:17.907Z,6.70
2023-03-26T20:47:46.492Z,6.70
2023-03-26T20:50:15.692Z,6.60
2023-03-26T20:52:45.707Z,6.60
2023-03-26T20:55:15.409Z,6.60
2023-03-26T20:57:44.028Z,6.50
2023-03-26T21:00:19.327Z,6.50
2023-03-26T21:02:49.291Z,6.50
2023-03-26T21:05:24.199Z,6.50
2023-03-26T21:07:55.226Z,6.60
2023-03-26T21:10:26.016Z,6.50
2023-03-26T21:12:58.130Z,6.40
2023-03-26T21:15:27.786Z,6.30
2023-03-26T21:17:56.734Z,6.20
2023-03-26T21:20:27.940Z,6.10
2023-03-26T21:23:04.572Z,6.00
2023-03-26T21:25:39.182Z,5.90
2023-03-26T21:28:26.171Z,5.90
2023-03-26T21:30:59.288Z,5.80
2023-03-26T21:33:28.414Z,5.90
2023-03-26T21:35:58.198Z,5.80
2023-03-26T21:38:32.313Z,5.80
2023-03-26T21:41:02.465Z,5.80
2023-03-26T21:43:31.062Z,5.80
2023-03-26T21:46:00.043Z,5.70
2023-03-26T21:48:30.134Z,5.70
2023-03-26T21:51:02.451Z,5.70
2023-03-26T21:53:32.734Z,5.60
2023-03-26T21:56:09.252Z,5.60
2023-03-26T21:58:48.952Z,5.50
2023-03-26T22:01:25.294Z,5.50
2023-03-26T22:04:02.005Z,5.40
2023-03-26T22:06:33.223Z,5.30
2023-03-26T22:09:03.592Z,5.30
2023-03-26T22:11:31.884Z,5.30
2023-03-26T22:14:01.524Z,5.30
2023-03-26T22:16:29.846Z,5.30
2023-03-26T22:18:58.103Z,5.30
2023-03-26T22:21:26.382Z,5.20
2023-03-26T22:23:54.677Z,5.10
2023-03-26T22:26:25.364Z,5.10
2023-03-26T22:28:53.546Z,5.10
2023-03-26T22:31:24.694Z,5.10
2023-03-26T22:33:53.667Z,5.00
2023-03-26T22:36:23.761Z,5.00
2023-03-26T22:38:54.451Z,5.00
2023-03-26T22:41:24.288Z,4.90
2023-03-26T22:43:54.789Z,4.90
2023-03-26T22:46:23.701Z,4.80
2023-03-26T22:48:52.175Z,4.80
2023-03-26T22:51:20.568Z,4.70
2023-03-26T22:53:48.858Z,4.70
2023-03-26T22:56:17.204Z,4.70
2023-03-26T22:58:47.611Z,4.70
2023-03-26T23:01:18.060Z,4.70
2023-03-26T23:03:46.625Z,4.70
2023-03-26T23:06:15.368Z,4.70
2023-03-26T23:08:43.812Z,4.70
2023-03-26T23:11:13.611Z,4.70
2023-03-26T23:13:42.486Z,4.70
2023-03-26T23:16:13.353Z,4.70
2023-03-26T23:18:42.043Z,4.60
2023-03-26T23:21:15.209Z,4.60
2023-03-26T23:23:43.593Z,4.60
2023-03-26T23:26:11.975Z,4.50
2023-03-26T23:28:41.049Z,4.50
2023-03-26T23:31:12.244Z,4.50
2023-03-26T23:33:46.013Z,4.50
2023-03-26T23:36:17.765Z,4.50
2023-03-26T23:38:47.787Z,4.40
2023-03-26T23:41:17.296Z,4.40
2023-03-26T23:43:53.754Z,4.40
2023-03-26T23:46:24.630Z,4.30
2023-03-26T23:48:53.556Z,4.40
2023-03-26T23:51:22.336Z,4.30
2023-03-26T23:53:50.560Z,4.30
2023-03-26T23:56:18.985Z,4.30
2023-03-26T23:58:47.822Z,4.30
